Time;durP1;ratioP1;P1;durP2;ratioP2;P2;SDS_P1;SDS_P2;PMS_P1;PMS_P2;Temp;Humidity;BMP_temperature;BMP_pressure;BME280_temperature;BME280_humidity;BME280_pressure;Samples;Min_cycle;Max_cycle;Signal;HPM_P1;HPM_P2
2024/03/31 00:01:42;;;;;;;;;;;;;;;12.02;66.42;97538.17;105969;1256;65388;-41
2024/03/31 00:04:10;;;;;;;;;;;;;;;11.97;66.54;97537.17;105999;1254;72288;-40
2024/03/31 00:06:37;;;;;;;;;;;;;;;11.93;66.68;97535.73;105938;1257;62037;-40
2024/03/31 00:09:04;;;;;;;;;;;;;;;11.91;66.61;97532.80;105798;1253;62065;-40
2024/03/31 00:11:31;;;;;;;;;;;;;;;11.89;66.66;97535.04;105973;1255;75088;-40
2024/03/31 00:13:58;;;;;;;;;;;;;;;11.89;66.76;97535.64;105788;1253;65738;-40
2024/03/31 00:16:25;;;;;;;;;;;;;;;11.87;66.95;97533.15;105936;1254;72333;-41
2024/03/31 00:18:52;;;;;;;;;;;;;;;11.84;67.16;97531.02;105930;1256;62071;-40
2024/03/31 00:21:19;;;;;;;;;;;;;;;11.80;67.15;97528.30;105860;1254;62098;-40
2024/03/31 00:23:46;;;;;;;;;;;;;;;11.76;67.53;97526.63;105815;1251;75118;-40
2024/03/31 00:26:13;;;;;;;;;;;;;;;11.73;67.96;97525.16;105925;1254;65658;-40
2024/03/31 00:28:41;;;;;;;;;;;;;;;11.70;68.26;97529.06;105846;1257;72983;-39
2024/03/31 00:31:08;;;;;;;;;;;;;;;11.65;68.59;97526.20;105804;1254;62040;-40
2024/03/31 00:33:35;;;;;;;;;;;;;;;11.62;69.11;97529.43;105901;1257;62367;-40
2024/03/31 00:36:05;;;;;;;;;;;;;;;11.57;69.84;97527.64;105793;1255;75186;-40
2024/03/31 00:38:32;;;;;;;;;;;;;;;11.46;70.45;97527.87;105848;1257;66219;-40
2024/03/31 00:40:59;;;;;;;;;;;;;;;11.32;71.12;97527.46;105885;1255;72336;-40
2024/03/31 00:43:26;;;;;;;;;;;;;;;11.19;71.79;97525.70;105661;1257;62021;-40
2024/03/31 00:45:53;;;;;;;;;;;;;;;11.08;72.19;97524.67;105836;1251;62434;-40
2024/03/31 00:48:20;;;;;;;;;;;;;;;11.04;72.70;97524.58;105713;1251;75132;-40
2024/03/31 00:50:47;;;;;;;;;;;;;;;10.97;73.41;97523.67;105813;1256;66409;-41
2024/03/31 00:53:14;;;;;;;;;;;;;;;10.91;73.53;97522.80;105878;1257;72477;-40
2024/03/31 00:55:42;;;;;;;;;;;;;;;10.90;73.77;97519.89;105896;1251;61922;-40
2024/03/31 00:58:09;;;;;;;;;;;;;;;10.86;74.37;97521.85;105854;1253;62098;-40
2024/03/31 01:00:36;;;;;;;;;;;;;;;10.74;74.81;97520.58;105752;1257;75046;-40
2024/03/31 01:03:04;;;;;;;;;;;;;;;10.61;75.33;97520.39;105565;1257;65794;-40
2024/03/31 01:05:31;;;;;;;;;;;;;;;10.47;75.72;97519.25;105592;1255;72459;-40
2024/03/31 01:07:58;;;;;;;;;;;;;;;10.35;76.26;97519.67;105671;1255;62034;-38
2024/03/31 01:10:25;;;;;;;;;;;;;;;10.25;76.70;97519.00;105903;1251;62075;-37
2024/03/31 01:12:52;;;;;;;;;;;;;;;10.16;77.33;97520.86;105576;1259;75100;-41
2024/03/31 01:15:21;;;;;;;;;;;;;;;10.07;78.11;97523.53;106012;1256;66248;-40
2024/03/31 01:17:49;;;;;;;;;;;;;;;10.01;78.72;97527.06;105780;1255;72664;-41
2024/03/31 01:20:16;;;;;;;;;;;;;;;9.99;79.16;97525.34;106288;1255;62047;-42
2024/03/31 01:22:43;;;;;;;;;;;;;;;10.01;79.61;97529.31;105937;1254;62063;-43
2024/03/31 01:25:10;;;;;;;;;;;;;;;10.03;80.13;97525.45;106422;1256;75186;-41
2024/03/31 01:27:38;;;;;;;;;;;;;;;10.04;80.41;97524.88;105824;1256;65294;-40
2024/03/31 01:30:06;;;;;;;;;;;;;;;10.06;80.53;97524.14;105571;1255;72309;-41
2024/03/31 01:32:33;;;;;;;;;;;;;;;10.12;80.29;97525.10;105722;1254;62130;-40
2024/03/31 01:35:01;;;;;;;;;;;;;;;10.20;80.08;97527.52;105781;1255;62178;-40
2024/03/31 01:37:28;;;;;;;;;;;;;;;10.27;80.08;97526.52;105968;1257;75388;-39
2024/03/31 01:39:55;;;;;;;;;;;;;;;10.31;79.80;97524.73;105861;1256;65656;-40
2024/03/31 01:42:22;;;;;;;;;;;;;;;10.35;79.55;97522.51;105817;1251;72331;-39
2024/03/31 01:44:49;;;;;;;;;;;;;;;10.38;79.70;97526.41;105776;1256;62050;-40
2024/03/31 01:47:16;;;;;;;;;;;;;;;10.35;79.68;97530.15;105575;1257;62181;-40
2024/03/31 01:49:44;;;;;;;;;;;;;;;10.33;79.61;97528.76;105508;1251;76048;-40
2024/03/31 01:52:11;;;;;;;;;;;;;;;10.34;79.79;97531.54;105665;1254;65258;-40
2024/03/31 01:54:38;;;;;;;;;;;;;;;10.35;79.93;97527.38;105665;1254;72573;-40
2024/03/31 01:57:05;;;;;;;;;;;;;;;10.36;79.77;97527.94;105717;1254;62488;-42
2024/03/31 01:59:32;;;;;;;;;;;;;;;10.40;79.83;97530.71;105686;1254;62107;-41
2024/03/31 02:01:59;;;;;;;;;;;;;;;10.41;80.15;97532.92;105615;1254;75216;-42
2024/03/31 02:04:26;;;;;;;;;;;;;;;10.40;80.16;97533.36;105517;1259;67077;-43
2024/03/31 02:06:53;;;;;;;;;;;;;;;10.40;80.26;97534.99;105580;1254;72376;-42
2024/03/31 02:09:20;;;;;;;;;;;;;;;10.38;80.35;97534.66;105522;1256;62070;-42
2024/03/31 02:11:47;;;;;;;;;;;;;;;10.38;80.45;97537.07;105583;1254;62150;-43
2024/03/31 02:14:14;;;;;;;;;;;;;;;10.38;80.60;97535.36;105534;1260;75121;-42
2024/03/31 02:16:41;;;;;;;;;;;;;;;10.36;80.64;97533.95;105651;1254;65596;-41
2024/03/31 02:19:09;;;;;;;;;;;;;;;10.35;80.91;97535.67;105585;1255;72559;-44
2024/03/31 02:21:36;;;;;;;;;;;;;;;10.36;81.00;97535.97;105688;1256;62384;-41
2024/03/31 02:24:04;;;;;;;;;;;;;;;10.34;81.36;97537.14;105715;1254;62066;-42
2024/03/31 02:26:31;;;;;;;;;;;;;;;10.24;81.58;97545.85;105867;1256;75562;-42
2024/03/31 02:28:58;;;;;;;;;;;;;;;10.12;82.07;97545.08;105709;1259;65550;-43
2024/03/31 02:31:25;;;;;;;;;;;;;;;10.02;82.35;97542.14;105722;1254;72542;-42
2024/03/31 02:33:52;;;;;;;;;;;;;;;9.93;82.79;97537.88;105734;1254;62069;-40
2024/03/31 02:36:19;;;;;;;;;;;;;;;9.80;83.26;97533.79;105631;1254;62116;-40
2024/03/31 02:38:46;;;;;;;;;;;;;;;9.74;83.69;97535.08;105621;1255;75194;-42
2024/03/31 02:41:13;;;;;;;;;;;;;;;9.70;84.33;97531.27;105643;1257;66144;-41
2024/03/31 02:43:42;;;;;;;;;;;;;;;9.71;84.66;97532.40;105601;1254;72598;-42
2024/03/31 02:46:09;;;;;;;;;;;;;;;9.76;84.88;97529.80;105868;1257;61915;-41
2024/03/31 02:48:36;;;;;;;;;;;;;;;9.80;85.04;97528.55;105515;1254;62095;-43
2024/03/31 02:51:06;;;;;;;;;;;;;;;9.81;85.02;97530.02;105725;1254;75374;-45
2024/03/31 02:53:33;;;;;;;;;;;;;;;9.87;85.10;97522.31;105796;1256;65149;-42
2024/03/31 02:56:01;;;;;;;;;;;;;;;9.94;84.95;97523.79;105600;1254;72572;-40
2024/03/31 02:58:28;;;;;;;;;;;;;;;9.99;84.99;97525.88;105663;1260;62768;-41
2024/03/31 03:01:02;;;;;;;;;;;;;;;9.98;84.92;97527.24;105716;1254;62135;-42
2024/03/31 03:03:29;;;;;;;;;;;;;;;9.97;84.91;97523.63;105623;1254;75210;-42
2024/03/31 03:05:56;;;;;;;;;;;;;;;9.95;84.97;97523.54;105525;1254;65994;-42
2024/03/31 03:08:23;;;;;;;;;;;;;;;9.95;84.95;97524.20;105523;1259;72382;-41
2024/03/31 03:10:54;;;;;;;;;;;;;;;9.96;85.10;97525.73;105615;1254;62053;-43
2024/03/31 03:13:21;;;;;;;;;;;;;;;9.97;85.21;97526.87;105862;1254;62069;-41
2024/03/31 03:15:48;;;;;;;;;;;;;;;9.98;85.34;97529.05;105712;1253;75333;-42
2024/03/31 03:18:18;;;;;;;;;;;;;;;9.96;85.26;97528.12;105928;1256;65347;-40
2024/03/31 03:20:51;;;;;;;;;;;;;;;9.94;85.17;97531.28;105791;1254;72430;-40
2024/03/31 03:23:18;;;;;;;;;;;;;;;9.91;85.25;97529.66;105671;1256;62039;-40
2024/03/31 03:25:53;;;;;;;;;;;;;;;9.86;85.53;97530.69;105629;1256;62131;-40
2024/03/31 03:28:20;;;;;;;;;;;;;;;9.82;85.76;97524.17;105630;1255;75223;-41
2024/03/31 03:30:47;;;;;;;;;;;;;;;9.79;85.76;97524.64;105767;1256;66103;-40
2024/03/31 03:33:17;;;;;;;;;;;;;;;9.79;85.95;97526.21;105691;1254;72737;-40
2024/03/31 03:35:45;;;;;;;;;;;;;;;9.80;86.12;97520.21;105866;1257;62136;-39
2024/03/31 03:38:13;;;;;;;;;;;;;;;9.82;86.14;97526.41;105968;1261;61980;-40
2024/03/31 03:40:40;;;;;;;;;;;;;;;9.86;86.21;97520.09;105891;1253;75344;-40
2024/03/31 03:43:08;;;;;;;;;;;;;;;9.88;86.16;97521.13;105841;1257;66014;-40
2024/03/31 03:45:38;;;;;;;;;;;;;;;9.91;86.25;97524.43;106016;1251;72374;-39
2024/03/31 03:48:06;;;;;;;;;;;;;;;9.93;86.11;97529.53;105707;1251;62066;-39
2024/03/31 03:50:35;;;;;;;;;;;;;;;9.94;86.03;97528.02;105595;1252;62136;-40
2024/03/31 03:53:03;;;;;;;;;;;;;;;9.96;86.08;97530.01;105698;1251;75079;-39
2024/03/31 03:55:30;;;;;;;;;;;;;;;9.97;86.09;97527.52;105623;1257;65815;-41
2024/03/31 03:57:57;;;;;;;;;;;;;;;9.96;86.08;97527.58;105844;1257;72541;-40
2024/03/31 04:00:24;;;;;;;;;;;;;;;9.95;86.01;97528.64;105811;1257;62056;-40
2024/03/31 04:02:51;;;;;;;;;;;;;;;9.90;86.09;97527.48;105710;1255;62085;-40
2024/03/31 04:05:18;;;;;;;;;;;;;;;9.91;86.19;97528.59;105978;1257;75665;-39
2024/03/31 04:07:49;;;;;;;;;;;;;;;9.96;86.13;97529.56;105754;1259;66064;-40
2024/03/31 04:10:16;;;;;;;;;;;;;;;10.03;86.03;97530.88;106167;1256;72562;-39
2024/03/31 04:12:43;;;;;;;;;;;;;;;10.09;85.75;97529.17;105947;1256;62033;-41
2024/03/31 04:15:11;;;;;;;;;;;;;;;10.15;85.57;97528.80;105665;1257;62098;-41
2024/03/31 04:17:38;;;;;;;;;;;;;;;10.20;85.26;97527.84;105646;1253;75367;-41
2024/03/31 04:20:06;;;;;;;;;;;;;;;10.24;85.05;97524.50;106234;1257;65646;-41
2024/03/31 04:22:33;;;;;;;;;;;;;;;10.28;84.74;97524.30;105699;1257;72384;-40
2024/03/31 04:25:00;;;;;;;;;;;;;;;10.33;84.57;97524.85;105494;1252;61940;-40
2024/03/31 04:27:28;;;;;;;;;;;;;;;10.36;84.24;97525.92;105841;1254;62212;-40
2024/03/31 04:29:56;;;;;;;;;;;;;;;10.36;84.17;97523.02;106351;1253;75324;-41
2024/03/31 04:32:24;;;;;;;;;;;;;;;10.34;84.13;97525.83;105818;1254;65419;-41
2024/03/31 04:34:51;;;;;;;;;;;;;;;10.33;84.25;97526.74;105746;1254;72600;-40
2024/03/31 04:37:20;;;;;;;;;;;;;;;10.29;84.51;97526.48;105936;1255;62031;-41
2024/03/31 04:39:50;;;;;;;;;;;;;;;10.23;84.77;97526.91;105859;1251;62171;-38
2024/03/31 04:42:18;;;;;;;;;;;;;;;10.16;85.06;97527.38;105851;1257;74205;-37
2024/03/31 04:44:45;;;;;;;;;;;;;;;10.11;85.41;97527.48;105718;1257;64992;-42
2024/03/31 04:47:12;;;;;;;;;;;;;;;10.05;85.63;97524.79;105706;1257;72673;-45
2024/03/31 04:49:42;;;;;;;;;;;;;;;10.00;86.08;97524.48;105615;1252;62158;-41
2024/03/31 04:52:10;;;;;;;;;;;;;;;9.97;86.46;97524.63;105844;1255;62161;-44
2024/03/31 04:54:39;;;;;;;;;;;;;;;9.96;86.73;97522.45;105900;1257;75403;-41
2024/03/31 04:57:06;;;;;;;;;;;;;;;9.95;87.07;97522.05;105795;1258;65481;-40
2024/03/31 04:59:34;;;;;;;;;;;;;;;9.96;87.40;97527.02;105900;1255;72554;-41
2024/03/31 05:02:02;;;;;;;;;;;;;;;10.00;87.49;97524.14;105763;1256;62036;-42
2024/03/31 05:04:29;;;;;;;;;;;;;;;10.08;87.79;97525.75;105536;1257;62175;-40
2024/03/31 05:06:56;;;;;;;;;;;;;;;10.18;87.73;97520.60;105606;1253;75166;-41
2024/03/31 05:09:23;;;;;;;;;;;;;;;10.27;87.55;97518.80;105687;1255;64778;-40
2024/03/31 05:11:50;;;;;;;;;;;;;;;10.35;87.21;97518.38;105615;1257;72085;-41
2024/03/31 05:14:18;;;;;;;;;;;;;;;10.43;87.13;97520.73;105582;1260;62027;-41
2024/03/31 05:16:45;;;;;;;;;;;;;;;10.52;86.90;97515.23;105720;1252;62110;-40
2024/03/31 05:19:13;;;;;;;;;;;;;;;10.60;86.70;97514.79;105578;1258;75151;-41
2024/03/31 05:21:40;;;;;;;;;;;;;;;10.68;86.37;97509.84;105736;1257;65959;-41
2024/03/31 05:24:07;;;;;;;;;;;;;;;10.76;86.22;97510.20;105792;1256;72378;-41
2024/03/31 05:26:35;;;;;;;;;;;;;;;10.84;85.85;97508.89;105895;1264;62044;-40
2024/03/31 05:29:02;;;;;;;;;;;;;;;10.93;85.66;97504.55;105705;1256;62129;-40
2024/03/31 05:31:30;;;;;;;;;;;;;;;11.04;85.37;97502.79;105858;1256;75117;-42
2024/03/31 05:34:09;;;;;;;;;;;;;;;11.16;85.12;97500.86;105572;1255;65546;-41
2024/03/31 05:36:40;;;;;;;;;;;;;;;11.26;84.86;97498.73;106004;1257;71904;-41
2024/03/31 05:39:07;;;;;;;;;;;;;;;11.36;84.80;97496.16;105768;1257;62073;-41
2024/03/31 05:41:34;;;;;;;;;;;;;;;11.47;84.57;97501.89;105529;1257;62072;-41
2024/03/31 05:44:02;;;;;;;;;;;;;;;11.56;84.17;97501.32;105792;1254;75442;-41
2024/03/31 05:46:30;;;;;;;;;;;;;;;11.65;84.27;97499.59;105789;1257;66315;-40
2024/03/31 05:48:57;;;;;;;;;;;;;;;11.74;84.22;97494.02;105951;1255;72847;-40
2024/03/31 05:51:29;;;;;;;;;;;;;;;11.85;83.99;97489.36;105786;1251;62135;-39
2024/03/31 05:53:57;;;;;;;;;;;;;;;11.95;83.44;97483.55;105822;1253;62063;-42
2024/03/31 05:56:24;;;;;;;;;;;;;;;12.03;82.93;97484.19;105901;1255;75615;-42
2024/03/31 05:58:51;;;;;;;;;;;;;;;12.13;82.52;97481.49;105719;1252;65965;-41
2024/03/31 06:01:20;;;;;;;;;;;;;;;12.22;82.02;97482.02;105738;1256;72571;-40
2024/03/31 06:03:49;;;;;;;;;;;;;;;12.33;81.62;97478.44;105665;1256;61915;-41
2024/03/31 06:06:16;;;;;;;;;;;;;;;12.45;81.21;97476.59;105699;1257;62182;-40
2024/03/31 06:08:44;;;;;;;;;;;;;;;12.56;81.17;97475.38;105797;1254;75178;-41
2024/03/31 06:11:11;;;;;;;;;;;;;;;12.69;80.48;97475.41;105856;1258;65766;-40
2024/03/31 06:13:38;;;;;;;;;;;;;;;12.79;79.61;97472.95;105673;1255;72400;-41
2024/03/31 06:16:06;;;;;;;;;;;;;;;12.87;79.30;97476.61;105566;1257;62027;-40
2024/03/31 06:18:33;;;;;;;;;;;;;;;12.93;79.13;97474.50;105652;1256;62055;-41
2024/03/31 06:21:07;;;;;;;;;;;;;;;13.01;78.99;97469.78;105697;1258;75109;-41
2024/03/31 06:23:35;;;;;;;;;;;;;;;13.09;78.62;97474.75;105624;1254;66216;-41
2024/03/31 06:26:02;;;;;;;;;;;;;;;13.18;78.30;97473.77;105811;1254;73027;-40
2024/03/31 06:28:30;;;;;;;;;;;;;;;13.27;78.10;97473.55;105627;1257;61976;-40
2024/03/31 06:30:57;;;;;;;;;;;;;;;13.35;77.81;97472.29;105865;1257;62098;-41
2024/03/31 06:33:25;;;;;;;;;;;;;;;13.44;77.42;97473.88;105804;1253;75417;-40
2024/03/31 06:35:53;;;;;;;;;;;;;;;13.52;77.25;97476.45;105958;1257;64731;-40
2024/03/31 06:38:20;;;;;;;;;;;;;;;13.61;77.28;97476.36;105590;1251;72422;-39
2024/03/31 06:40:47;;;;;;;;;;;;;;;13.71;77.03;97473.16;105860;1251;62478;-40
2024/03/31 06:43:15;;;;;;;;;;;;;;;13.80;76.23;97469.70;105888;1252;62062;-40
2024/03/31 06:45:43;;;;;;;;;;;;;;;13.90;76.03;97472.23;105771;1255;75339;-40
2024/03/31 06:48:10;;;;;;;;;;;;;;;13.99;75.85;97475.47;105844;1256;66181;-41
2024/03/31 06:50:37;;;;;;;;;;;;;;;14.11;75.57;97478.08;105844;1257;72292;-40
2024/03/31 06:53:04;;;;;;;;;;;;;;;14.22;75.65;97478.52;105921;1257;61976;-40
2024/03/31 06:55:31;;;;;;;;;;;;;;;14.34;75.77;97480.02;105775;1259;62114;-40
2024/03/31 06:57:58;;;;;;;;;;;;;;;14.47;75.62;97477.98;105823;1256;75147;-40
2024/03/31 07:00:26;;;;;;;;;;;;;;;14.57;75.37;97481.44;105944;1257;65803;-40
2024/03/31 07:02:53;;;;;;;;;;;;;;;14.68;75.31;97482.86;105876;1257;72884;-41
2024/03/31 07:05:20;;;;;;;;;;;;;;;14.80;75.32;97487.64;105726;1252;62053;-42
2024/03/31 07:07:48;;;;;;;;;;;;;;;14.91;74.93;97487.15;105670;1254;62129;-39
2024/03/31 07:10:15;;;;;;;;;;;;;;;15.01;74.83;97485.02;105577;1253;76260;-39
2024/03/31 07:12:42;;;;;;;;;;;;;;;15.13;74.53;97484.20;105871;1256;65195;-40
2024/03/31 07:15:10;;;;;;;;;;;;;;;15.23;74.73;97481.41;106461;1256;73470;-42
2024/03/31 07:17:38;;;;;;;;;;;;;;;15.36;74.99;97477.84;105603;1257;62035;-41
2024/03/31 07:20:06;;;;;;;;;;;;;;;15.50;74.62;97477.30;105634;1257;62091;-41
2024/03/31 07:22:34;;;;;;;;;;;;;;;15.63;74.70;97473.23;105752;1256;75063;-41
2024/03/31 07:25:01;;;;;;;;;;;;;;;15.74;74.85;97472.25;105559;1258;65737;-42
2024/03/31 07:27:29;;;;;;;;;;;;;;;15.89;74.90;97467.79;105669;1254;72289;-41
2024/03/31 07:29:56;;;;;;;;;;;;;;;16.06;75.07;97466.10;105520;1254;62114;-41
2024/03/31 07:32:24;;;;;;;;;;;;;;;16.23;74.52;97463.39;105842;1251;62155;-40
2024/03/31 07:34:51;;;;;;;;;;;;;;;16.36;73.85;97459.56;105587;1254;75366;-43
2024/03/31 07:37:18;;;;;;;;;;;;;;;16.48;72.99;97456.52;105842;1257;66216;-42
2024/03/31 07:39:45;;;;;;;;;;;;;;;16.60;72.38;97450.11;105931;1251;72296;-41
2024/03/31 07:42:12;;;;;;;;;;;;;;;16.72;71.55;97441.52;105731;1264;62037;-41
2024/03/31 07:44:39;;;;;;;;;;;;;;;16.85;70.92;97431.44;105708;1251;62435;-41
2024/03/31 07:47:06;;;;;;;;;;;;;;;17.01;70.04;97434.13;105595;1253;75486;-41
2024/03/31 07:49:33;;;;;;;;;;;;;;;17.23;69.72;97434.48;105862;1251;67086;-39
2024/03/31 07:52:00;;;;;;;;;;;;;;;17.50;69.09;97432.90;105809;1251;72278;-46
2024/03/31 07:54:28;;;;;;;;;;;;;;;17.75;68.07;97432.23;105710;1257;62034;-41
2024/03/31 07:56:55;;;;;;;;;;;;;;;17.96;67.40;97429.65;105874;1251;62052;-42
2024/03/31 07:59:22;;;;;;;;;;;;;;;18.09;66.28;97427.63;105819;1255;76229;-44
2024/03/31 08:01:49;;;;;;;;;;;;;;;18.16;65.82;97428.04;105999;1258;66019;-42
2024/03/31 08:04:16;;;;;;;;;;;;;;;18.24;66.24;97431.23;105815;1255;72168;-40
2024/03/31 08:06:43;;;;;;;;;;;;;;;18.29;65.42;97430.81;105749;1257;62043;-40
2024/03/31 08:09:11;;;;;;;;;;;;;;;18.37;64.59;97432.07;105932;1251;62062;-41
2024/03/31 08:11:38;;;;;;;;;;;;;;;18.48;64.33;97432.50;105733;1256;75175;-38
2024/03/31 08:14:05;;;;;;;;;;;;;;;18.66;63.83;97431.94;105923;1257;66914;-38
2024/03/31 08:16:32;;;;;;;;;;;;;;;18.85;63.20;97432.52;105797;1254;73174;-42
2024/03/31 08:19:00;;;;;;;;;;;;;;;19.01;63.17;97429.73;105689;1256;62034;-41
2024/03/31 08:21:27;;;;;;;;;;;;;;;19.10;63.09;97429.83;105959;1254;62418;-43
2024/03/31 08:23:54;;;;;;;;;;;;;;;19.18;63.31;97427.02;105705;1256;76286;-43
2024/03/31 08:26:21;;;;;;;;;;;;;;;19.27;63.72;97433.08;105663;1255;66025;-44
2024/03/31 08:28:48;;;;;;;;;;;;;;;19.35;64.39;97429.06;105670;1253;73212;-42
2024/03/31 08:31:15;;;;;;;;;;;;;;;19.43;64.32;97427.14;105745;1256;62139;-39
2024/03/31 08:33:45;;;;;;;;;;;;;;;19.53;63.97;97423.45;105812;1254;62149;-39
2024/03/31 08:36:13;;;;;;;;;;;;;;;19.62;62.69;97422.35;105819;1258;75264;-41
2024/03/31 08:38:41;;;;;;;;;;;;;;;19.73;61.85;97416.80;105827;1255;65992;-41
2024/03/31 08:41:09;;;;;;;;;;;;;;;19.88;61.39;97414.86;105898;1256;73407;-40
2024/03/31 08:43:37;;;;;;;;;;;;;;;20.03;60.94;97414.40;105569;1257;62099;-41
2024/03/31 08:46:07;;;;;;;;;;;;;;;20.22;60.69;97412.05;105923;1256;62052;-41
2024/03/31 08:48:37;;;;;;;;;;;;;;;20.41;60.55;97409.94;105815;1251;75145;-40
2024/03/31 08:51:05;;;;;;;;;;;;;;;20.57;59.73;97412.16;105929;1256;65000;-39
2024/03/31 08:53:32;;;;;;;;;;;;;;;20.65;58.78;97407.08;105854;1251;73191;-40
2024/03/31 08:55:59;;;;;;;;;;;;;;;20.71;58.63;97414.37;105961;1256;62469;-43
2024/03/31 08:58:28;;;;;;;;;;;;;;;20.82;59.07;97409.77;105875;1257;62152;-41
2024/03/31 09:00:55;;;;;;;;;;;;;;;20.95;58.92;97411.88;105923;1255;76399;-42
2024/03/31 09:03:23;;;;;;;;;;;;;;;21.07;58.78;97408.23;105902;1258;66115;-41
2024/03/31 09:05:50;;;;;;;;;;;;;;;21.19;57.21;97405.73;105623;1254;73334;-40
2024/03/31 09:08:18;;;;;;;;;;;;;;;21.31;54.28;97407.41;105722;1258;62047;-40
2024/03/31 09:11:08;;;;;;;;;;;;;;;21.50;53.32;97405.48;105676;1254;62140;-41
2024/03/31 09:13:35;;;;;;;;;;;;;;;21.72;52.74;97404.13;105689;1257;76403;-40
2024/03/31 09:16:02;;;;;;;;;;;;;;;21.95;51.46;97401.14;105789;1257;64868;-39
2024/03/31 09:18:29;;;;;;;;;;;;;;;22.17;51.52;97401.70;105844;1254;73926;-40
2024/03/31 09:20:57;;;;;;;;;;;;;;;22.42;50.72;97404.58;105720;1259;62128;-41
2024/03/31 09:23:24;;;;;;;;;;;;;;;22.65;49.34;97404.27;105779;1256;62136;-41
2024/03/31 09:25:51;;;;;;;;;;;;;;;22.85;46.58;97404.44;105709;1257;76681;-40
2024/03/31 09:28:18;;;;;;;;;;;;;;;22.97;45.65;97400.73;105744;1257;65814;-42
2024/03/31 09:30:49;;;;;;;;;;;;;;;23.01;45.48;97399.73;105618;1254;73380;-40
2024/03/31 09:33:16;;;;;;;;;;;;;;;23.01;44.91;97403.09;105765;1256;62044;-42
2024/03/31 09:35:44;;;;;;;;;;;;;;;23.00;45.02;97396.45;105838;1253;62162;-43
2024/03/31 09:38:11;;;;;;;;;;;;;;;23.00;45.55;97398.65;105816;1257;76140;-39
2024/03/31 09:40:40;;;;;;;;;;;;;;;23.05;44.17;97401.86;105851;1251;67302;-41
2024/03/31 09:43:07;;;;;;;;;;;;;;;23.09;44.31;97396.88;105581;1255;72451;-42
2024/03/31 09:45:34;;;;;;;;;;;;;;;23.16;44.46;97392.36;105591;1254;62132;-41
2024/03/31 09:48:02;;;;;;;;;;;;;;;23.24;44.76;97391.77;105711;1257;62093;-42
2024/03/31 09:50:52;;;;;;;;;;;;;;;23.32;42.53;97388.44;105769;1251;76275;-41
2024/03/31 09:53:21;;;;;;;;;;;;;;;23.32;41.36;97386.55;105808;1257;66173;-40
2024/03/31 09:55:49;;;;;;;;;;;;;;;23.28;41.74;97383.34;105659;1251;73834;-40
2024/03/31 09:58:16;;;;;;;;;;;;;;;23.29;43.75;97384.20;105758;1256;62032;-39
2024/03/31 10:00:44;;;;;;;;;;;;;;;23.39;43.90;97380.73;105923;1251;62070;-43
2024/03/31 10:03:14;;;;;;;;;;;;;;;23.51;42.38;97378.27;105784;1254;75334;-40
2024/03/31 10:05:41;;;;;;;;;;;;;;;23.57;41.12;97375.21;105720;1258;66046;-41
2024/03/31 10:08:08;;;;;;;;;;;;;;;23.62;41.46;97368.42;105669;1254;72389;-43
2024/03/31 10:10:36;;;;;;;;;;;;;;;23.66;41.79;97367.10;105747;1254;62151;-41
2024/03/31 10:13:04;;;;;;;;;;;;;;;23.69;39.44;97365.08;105731;1254;62069;-41
2024/03/31 10:15:32;;;;;;;;;;;;;;;23.67;39.97;97362.42;105758;1257;76191;-41
2024/03/31 10:17:59;;;;;;;;;;;;;;;23.62;40.39;97363.13;105735;1257;65676;-41
2024/03/31 10:20:26;;;;;;;;;;;;;;;23.56;40.48;97358.11;105816;1254;73508;-43
2024/03/31 10:22:54;;;;;;;;;;;;;;;23.47;41.54;97363.02;105782;1257;62056;-41
2024/03/31 10:25:24;;;;;;;;;;;;;;;23.39;42.21;97365.52;106010;1253;61915;-40
2024/03/31 10:27:51;;;;;;;;;;;;;;;23.32;42.74;97372.66;105669;1255;75987;-42
2024/03/31 10:30:19;;;;;;;;;;;;;;;23.26;43.08;97375.38;106226;1254;66825;-41
2024/03/31 10:32:46;;;;;;;;;;;;;;;23.24;43.98;97381.86;105707;1254;72459;-42
2024/03/31 10:35:13;;;;;;;;;;;;;;;23.25;43.47;97381.95;106093;1256;62024;-43
2024/03/31 10:37:40;;;;;;;;;;;;;;;23.24;44.03;97382.48;106017;1251;62067;-42
2024/03/31 10:40:07;;;;;;;;;;;;;;;23.25;43.80;97381.86;105805;1256;76161;-46
2024/03/31 10:42:34;;;;;;;;;;;;;;;23.25;43.90;97381.31;105782;1255;66970;-41
2024/03/31 10:45:01;;;;;;;;;;;;;;;23.24;44.13;97381.63;105787;1251;73132;-40
2024/03/31 10:47:29;;;;;;;;;;;;;;;23.22;43.28;97378.96;105847;1256;62047;-41
2024/03/31 10:49:57;;;;;;;;;;;;;;;23.16;43.52;97376.05;106010;1251;62032;-41
2024/03/31 10:52:26;;;;;;;;;;;;;;;23.10;44.12;97376.90;105822;1251;75753;-40
2024/03/31 10:54:56;;;;;;;;;;;;;;;23.08;43.79;97376.66;105749;1251;66222;-40
2024/03/31 10:57:24;;;;;;;;;;;;;;;23.07;44.02;97374.26;105799;1251;73265;-40
2024/03/31 10:59:57;;;;;;;;;;;;;;;23.06;43.45;97373.77;105715;1251;62148;-41
2024/03/31 11:02:25;;;;;;;;;;;;;;;23.04;42.83;97370.33;105780;1254;62067;-42
2024/03/31 11:05:20;;;;;;;;;;;;;;;23.04;43.48;97365.57;105622;1257;75151;-42
2024/03/31 11:07:47;;;;;;;;;;;;;;;23.07;42.98;97369.23;105740;1253;67195;-42
2024/03/31 11:10:15;;;;;;;;;;;;;;;23.11;43.33;97371.75;106300;1253;71368;-42
2024/03/31 11:12:43;;;;;;;;;;;;;;;23.19;43.32;97368.88;105895;1256;62143;-41
2024/03/31 11:15:10;;;;;;;;;;;;;;;23.32;43.48;97373.54;106326;1255;62479;-41
2024/03/31 11:17:39;;;;;;;;;;;;;;;23.45;42.92;97370.13;105622;1257;188667;-41
2024/03/31 11:20:06;;;;;;;;;;;;;;;23.54;42.82;97360.84;105623;1259;65810;-42
2024/03/31 11:22:34;;;;;;;;;;;;;;;23.60;43.44;97355.92;105869;1255;73235;-41
2024/03/31 11:25:02;;;;;;;;;;;;;;;23.69;44.27;97356.63;105885;1256;62067;-39
2024/03/31 11:27:29;;;;;;;;;;;;;;;23.92;44.97;97355.30;105662;1253;62189;-40
2024/03/31 11:29:57;;;;;;;;;;;;;;;24.14;44.38;97351.31;105679;1257;76246;-42
2024/03/31 11:32:27;;;;;;;;;;;;;;;24.18;44.26;97352.16;105631;1258;66748;-40
2024/03/31 11:34:54;;;;;;;;;;;;;;;24.07;44.55;97356.38;106267;1254;72969;-40
2024/03/31 11:37:21;;;;;;;;;;;;;;;23.91;44.95;97363.66;105736;1257;62091;-44
2024/03/31 11:39:49;;;;;;;;;;;;;;;23.76;45.60;97363.73;105728;1256;62203;-42
2024/03/31 11:42:16;;;;;;;;;;;;;;;23.62;45.46;97354.92;105773;1257;75967;-42
2024/03/31 11:44:43;;;;;;;;;;;;;;;23.54;46.21;97354.05;105833;1255;67079;-41
2024/03/31 11:47:12;;;;;;;;;;;;;;;23.50;47.27;97352.48;105790;1251;73468;-39
2024/03/31 11:49:39;;;;;;;;;;;;;;;23.44;48.21;97361.46;105802;1257;62053;-43
2024/03/31 11:52:06;;;;;;;;;;;;;;;23.40;49.08;97373.63;106022;1251;62092;-38
2024/03/31 11:54:33;;;;;;;;;;;;;;;23.32;47.66;97378.52;105672;1252;75521;-41
2024/03/31 11:57:04;;;;;;;;;;;;;;;23.24;46.93;97376.55;105789;1257;67037;-41
2024/03/31 11:59:31;;;;;;;;;;;;;;;23.18;46.67;97372.77;105842;1257;72619;-41
2024/03/31 12:01:58;;;;;;;;;;;;;;;23.16;46.91;97374.11;105753;1255;62146;-40
2024/03/31 12:04:26;;;;;;;;;;;;;;;23.20;46.11;97379.80;105825;1256;62145;-41
2024/03/31 12:06:53;;;;;;;;;;;;;;;23.27;44.29;97376.78;105793;1253;76374;-40
2024/03/31 12:09:22;;;;;;;;;;;;;;;23.33;43.68;97377.58;105767;1257;65860;-43
2024/03/31 12:11:49;;;;;;;;;;;;;;;23.34;42.87;97373.14;105718;1254;73238;-41
2024/03/31 12:14:17;;;;;;;;;;;;;;;23.29;43.12;97371.87;105773;1256;62044;-41
2024/03/31 12:16:44;;;;;;;;;;;;;;;23.23;42.57;97368.66;105891;1254;62060;-42
2024/03/31 12:19:12;;;;;;;;;;;;;;;23.11;41.81;97365.98;105836;1254;76390;-41
2024/03/31 12:21:42;;;;;;;;;;;;;;;23.01;41.00;97353.30;105974;1256;65998;-42
2024/03/31 12:24:09;;;;;;;;;;;;;;;22.93;40.78;97358.21;105979;1254;72554;-40
2024/03/31 12:26:36;;;;;;;;;;;;;;;22.85;38.55;97354.13;105879;1254;62033;-41
2024/03/31 12:29:05;;;;;;;;;;;;;;;22.76;38.57;97347.86;105580;1257;62091;-42
2024/03/31 12:31:32;;;;;;;;;;;;;;;22.68;38.47;97347.52;105820;1254;76049;-40
2024/03/31 12:33:59;;;;;;;;;;;;;;;22.62;38.49;97343.80;105857;1254;64679;-41
2024/03/31 12:36:27;;;;;;;;;;;;;;;22.57;37.90;97339.41;105827;1251;74900;-41
2024/03/31 12:38:54;;;;;;;;;;;;;;;22.55;36.96;97336.05;105726;1251;62189;-42
2024/03/31 12:41:22;;;;;;;;;;;;;;;22.54;36.89;97330.83;105895;1251;62139;-42